Huvudsida
METAR-TAF:

METAR-TAF

Flygplatser :

Århus flygplats

Århus, Danmark

latitud: 56-18N, longitud: 010-37E, höjd: 23 m

Aktuellt väderrapport

Denna rapport gjordes för 32 minuter sedan, klockan 12:20 UTC
Vind 7 kt från syd/sydväst i byarna ända upp till 17 kt, varierande mellan syd/sydost och väst
Temperatur 19°C
Fuktighet 78%
Tryck 1016 hPa
Sikt 10 km eller mer

METAR: EKAH 181220Z AUTO 21007G17KT 150V270 9999NDV OVC022/// 19/15 Q1016

Tid: 14:52 (12:52 UTC)

Väderprognos

Denna rapport gjordes för 1 timme och 55 minuter sedan, klockan 10:57 UTC
Prognos gäller från 18 kl. 12 UTC till 19 kl. 12 UTC
Vind 10 kt från sydväst
Sikt 10 km eller mer
Brutna moln på en höjd av 2500 ft
Temporärt
från 18 kl. 12 UTC till 18 kl. 15 UTC
Vind 15 kt från sydväst i byarna ända upp till 25 kt
Temporärt
från 18 kl. 18 UTC till 19 kl. 12 UTC
Brutna moln på en höjd av 1200 ft
lätt regn

TAF: EKAH 181057Z 1812/1912 22010KT 9999 BKN025 TEMPO 1812/1815 23015G25KT TEMPO 1818/1912 -RA BKN012

Aktuella väderrapporter och prognoser från 4000 flygplatser (METAR- och TAF-rapporter).

De tillgängliga stationerna syns som gula och röda prickar på kartan.

För musen över prickarna för att se namnen på stationerna.

Klicka sedan för att få väderrapporter och prognoser.

För att ändra kartan: Klicka på de gröna knapparna med ett svart kors på för att zooma in; den gröna knappen med ett streck på för att zooma ut; eller på de gröna pilarna för angränsande kartor.


METAR-TAF: